sensor_id;sensor_type;location;lat;lon;timestamp;temperature;humidity
921;DHT22;447;51.332;6.778;2022-11-20T00:01:11;7.80;97.30
921;DHT22;447;51.332;6.778;2022-11-20T00:03:38;7.80;97.20
921;DHT22;447;51.332;6.778;2022-11-20T00:06:15;7.80;97.30
921;DHT22;447;51.332;6.778;2022-11-20T00:08:42;7.80;97.30
921;DHT22;447;51.332;6.778;2022-11-20T00:11:22;7.80;97.40
921;DHT22;447;51.332;6.778;2022-11-20T00:13:50;7.80;97.30
921;DHT22;447;51.332;6.778;2022-11-20T00:16:18;7.80;97.40
921;DHT22;447;51.332;6.778;2022-11-20T00:18:44;7.70;97.70
921;DHT22;447;51.332;6.778;2022-11-20T00:21:23;7.80;97.40
921;DHT22;447;51.332;6.778;2022-11-20T00:23:54;7.80;97.40
921;DHT22;447;51.332;6.778;2022-11-20T00:26:25;7.80;97.40
921;DHT22;447;51.332;6.778;2022-11-20T00:28:53;7.70;97.40
921;DHT22;447;51.332;6.778;2022-11-20T00:31:19;7.70;97.40
921;DHT22;447;51.332;6.778;2022-11-20T00:33:45;7.80;97.50
921;DHT22;447;51.332;6.778;2022-11-20T00:36:18;7.70;97.40
921;DHT22;447;51.332;6.778;2022-11-20T00:38:44;7.70;97.40
921;DHT22;447;51.332;6.778;2022-11-20T00:41:13;7.70;97.40
921;DHT22;447;51.332;6.778;2022-11-20T00:43:39;7.70;97.40
921;DHT22;447;51.332;6.778;2022-11-20T00:46:12;7.70;97.40
921;DHT22;447;51.332;6.778;2022-11-20T00:48:38;7.70;97.50
921;DHT22;447;51.332;6.778;2022-11-20T00:51:07;7.70;97.40
921;DHT22;447;51.332;6.778;2022-11-20T00:53:33;7.70;97.40
921;DHT22;447;51.332;6.778;2022-11-20T00:56:05;7.70;97.50
921;DHT22;447;51.332;6.778;2022-11-20T00:58:37;7.70;97.50
921;DHT22;447;51.332;6.778;2022-11-20T01:01:12;7.70;97.50
921;DHT22;447;51.332;6.778;2022-11-20T01:03:41;7.70;97.50
921;DHT22;447;51.332;6.778;2022-11-20T01:06:12;7.70;97.50
921;DHT22;447;51.332;6.778;2022-11-20T01:08:41;7.70;97.50
921;DHT22;447;51.332;6.778;2022-11-20T01:11:10;7.70;97.50
921;DHT22;447;51.332;6.778;2022-11-20T01:13:39;7.70;97.50
921;DHT22;447;51.332;6.778;2022-11-20T01:16:28;7.70;97.50
921;DHT22;447;51.332;6.778;2022-11-20T01:18:56;7.70;97.50
921;DHT22;447;51.332;6.778;2022-11-20T01:21:29;7.70;97.50
921;DHT22;447;51.332;6.778;2022-11-20T01:23:55;7.70;97.50
921;DHT22;447;51.332;6.778;2022-11-20T01:26:31;7.70;97.50
921;DHT22;447;51.332;6.778;2022-11-20T01:28:58;7.70;97.50
921;DHT22;447;51.332;6.778;2022-11-20T01:31:32;7.70;97.50
921;DHT22;447;51.332;6.778;2022-11-20T01:34:00;7.70;97.60
921;DHT22;447;51.332;6.778;2022-11-20T01:36:30;7.60;97.50
921;DHT22;447;51.332;6.778;2022-11-20T01:39:04;7.60;97.50
921;DHT22;447;51.332;6.778;2022-11-20T01:41:31;7.70;97.60
921;DHT22;447;51.332;6.778;2022-11-20T01:44:18;7.70;97.60
921;DHT22;447;51.332;6.778;2022-11-20T01:46:58;7.70;97.60
921;DHT22;447;51.332;6.778;2022-11-20T01:52:04;7.60;97.60
921;DHT22;447;51.332;6.778;2022-11-20T01:54:36;7.60;97.60
921;DHT22;447;51.332;6.778;2022-11-20T01:57:09;7.60;97.60
921;DHT22;447;51.332;6.778;2022-11-20T01:59:41;7.60;97.70
921;DHT22;447;51.332;6.778;2022-11-20T02:02:09;7.60;97.70
921;DHT22;447;51.332;6.778;2022-11-20T02:04:35;7.60;97.70
921;DHT22;447;51.332;6.778;2022-11-20T02:07:04;7.60;97.70
921;DHT22;447;51.332;6.778;2022-11-20T02:09:31;7.60;97.70
921;DHT22;447;51.332;6.778;2022-11-20T02:12:01;7.60;97.70
921;DHT22;447;51.332;6.778;2022-11-20T02:14:28;7.60;97.80
921;DHT22;447;51.332;6.778;2022-11-20T02:16:55;7.60;97.70
921;DHT22;447;51.332;6.778;2022-11-20T02:19:28;7.60;97.70
921;DHT22;447;51.332;6.778;2022-11-20T02:22:19;7.60;97.70
921;DHT22;447;51.332;6.778;2022-11-20T02:24:52;7.60;97.70
921;DHT22;447;51.332;6.778;2022-11-20T02:27:21;7.60;97.70
921;DHT22;447;51.332;6.778;2022-11-20T02:29:54;7.60;97.70
921;DHT22;447;51.332;6.778;2022-11-20T02:34:51;7.60;97.80
921;DHT22;447;51.332;6.778;2022-11-20T02:37:20;7.60;97.80
921;DHT22;447;51.332;6.778;2022-11-20T02:39:52;7.60;97.80
921;DHT22;447;51.332;6.778;2022-11-20T02:42:18;7.60;97.90
921;DHT22;447;51.332;6.778;2022-11-20T02:44:45;7.60;97.80
921;DHT22;447;51.332;6.778;2022-11-20T02:47:10;7.60;97.90
921;DHT22;447;51.332;6.778;2022-11-20T02:49:37;7.60;97.90
921;DHT22;447;51.332;6.778;2022-11-20T02:52:05;7.60;97.80
921;DHT22;447;51.332;6.778;2022-11-20T02:54:33;7.60;97.80
921;DHT22;447;51.332;6.778;2022-11-20T02:57:01;7.60;97.80
921;DHT22;447;51.332;6.778;2022-11-20T02:59:30;7.60;97.80
921;DHT22;447;51.332;6.778;2022-11-20T03:01:58;7.60;97.80
921;DHT22;447;51.332;6.778;2022-11-20T03:04:24;7.60;97.80
921;DHT22;447;51.332;6.778;2022-11-20T03:06:52;7.60;97.80
921;DHT22;447;51.332;6.778;2022-11-20T03:09:18;7.60;97.90
921;DHT22;447;51.332;6.778;2022-11-20T03:11:44;7.60;97.90
921;DHT22;447;51.332;6.778;2022-11-20T03:14:13;7.60;97.90
921;DHT22;447;51.332;6.778;2022-11-20T03:16:43;7.60;97.90
921;DHT22;447;51.332;6.778;2022-11-20T03:19:11;7.50;97.80
921;DHT22;447;51.332;6.778;2022-11-20T03:21:37;7.60;97.90
921;DHT22;447;51.332;6.778;2022-11-20T03:24:06;7.50;97.90
921;DHT22;447;51.332;6.778;2022-11-20T03:26:33;7.50;97.90
921;DHT22;447;51.332;6.778;2022-11-20T03:29:04;7.50;97.90
921;DHT22;447;51.332;6.778;2022-11-20T03:31:34;7.50;97.90
921;DHT22;447;51.332;6.778;2022-11-20T03:34:06;7.50;97.90
921;DHT22;447;51.332;6.778;2022-11-20T03:36:33;7.50;98.00
921;DHT22;447;51.332;6.778;2022-11-20T03:39:02;7.50;97.90
921;DHT22;447;51.332;6.778;2022-11-20T03:41:30;7.50;98.00
921;DHT22;447;51.332;6.778;2022-11-20T03:44:01;7.50;98.00
921;DHT22;447;51.332;6.778;2022-11-20T03:46:28;7.50;98.00
921;DHT22;447;51.332;6.778;2022-11-20T03:48:56;7.50;98.00
921;DHT22;447;51.332;6.778;2022-11-20T03:51:26;7.50;98.00
921;DHT22;447;51.332;6.778;2022-11-20T03:53:57;7.50;98.00
921;DHT22;447;51.332;6.778;2022-11-20T03:56:27;7.50;98.10
921;DHT22;447;51.332;6.778;2022-11-20T03:58:54;7.50;98.10
921;DHT22;447;51.332;6.778;2022-11-20T04:01:28;7.50;98.00
921;DHT22;447;51.332;6.778;2022-11-20T04:03:56;7.50;98.30
921;DHT22;447;51.332;6.778;2022-11-20T04:06:27;7.50;98.00
921;DHT22;447;51.332;6.778;2022-11-20T04:08:57;7.50;98.00
921;DHT22;447;51.332;6.778;2022-11-20T04:11:26;7.50;98.10
921;DHT22;447;51.332;6.778;2022-11-20T04:14:03;7.50;98.10
921;DHT22;447;51.332;6.778;2022-11-20T04:16:32;7.50;98.10
921;DHT22;447;51.332;6.778;2022-11-20T04:19:00;7.50;98.10
921;DHT22;447;51.332;6.778;2022-11-20T04:21:29;7.50;98.10
921;DHT22;447;51.332;6.778;2022-11-20T04:23:56;7.50;98.10
921;DHT22;447;51.332;6.778;2022-11-20T04:26:24;7.50;98.20
921;DHT22;447;51.332;6.778;2022-11-20T04:28:50;7.50;98.10
921;DHT22;447;51.332;6.778;2022-11-20T04:31:19;7.50;98.20
921;DHT22;447;51.332;6.778;2022-11-20T04:33:46;7.50;98.20
921;DHT22;447;51.332;6.778;2022-11-20T04:38:56;7.50;98.20
921;DHT22;447;51.332;6.778;2022-11-20T04:41:33;7.50;98.20
921;DHT22;447;51.332;6.778;2022-11-20T04:44:04;7.50;98.20
921;DHT22;447;51.332;6.778;2022-11-20T04:46:33;7.50;98.30
921;DHT22;447;51.332;6.778;2022-11-20T04:49:00;7.50;98.30
921;DHT22;447;51.332;6.778;2022-11-20T04:51:28;7.50;98.30
921;DHT22;447;51.332;6.778;2022-11-20T04:53:55;7.50;98.30
921;DHT22;447;51.332;6.778;2022-11-20T04:56:22;7.50;98.30
921;DHT22;447;51.332;6.778;2022-11-20T04:58:48;7.50;98.30
921;DHT22;447;51.332;6.778;2022-11-20T05:01:20;7.50;98.30
921;DHT22;447;51.332;6.778;2022-11-20T05:03:47;7.50;98.30
921;DHT22;447;51.332;6.778;2022-11-20T05:06:18;7.50;98.30
921;DHT22;447;51.332;6.778;2022-11-20T05:08:45;7.50;98.30
921;DHT22;447;51.332;6.778;2022-11-20T05:11:14;7.50;98.30
921;DHT22;447;51.332;6.778;2022-11-20T05:13:40;7.50;98.40
921;DHT22;447;51.332;6.778;2022-11-20T05:16:09;7.50;98.30
921;DHT22;447;51.332;6.778;2022-11-20T05:18:38;7.50;98.40
921;DHT22;447;51.332;6.778;2022-11-20T05:21:07;7.50;98.30
921;DHT22;447;51.332;6.778;2022-11-20T05:23:37;7.50;98.40
921;DHT22;447;51.332;6.778;2022-11-20T05:26:04;7.50;98.40
921;DHT22;447;51.332;6.778;2022-11-20T05:28:30;7.50;98.40
921;DHT22;447;51.332;6.778;2022-11-20T05:31:04;7.50;98.40
921;DHT22;447;51.332;6.778;2022-11-20T05:33:30;7.50;98.40
921;DHT22;447;51.332;6.778;2022-11-20T05:35:58;7.50;98.40
921;DHT22;447;51.332;6.778;2022-11-20T05:38:28;7.50;98.40
921;DHT22;447;51.332;6.778;2022-11-20T05:40:54;7.50;98.40
921;DHT22;447;51.332;6.778;2022-11-20T05:43:22;7.50;98.40
921;DHT22;447;51.332;6.778;2022-11-20T05:45:54;7.50;98.40
921;DHT22;447;51.332;6.778;2022-11-20T05:48:22;7.50;98.40
921;DHT22;447;51.332;6.778;2022-11-20T05:50:50;7.50;98.40
921;DHT22;447;51.332;6.778;2022-11-20T05:53:16;7.50;98.40
921;DHT22;447;51.332;6.778;2022-11-20T05:55:45;7.50;98.40
921;DHT22;447;51.332;6.778;2022-11-20T05:58:13;7.50;98.40
921;DHT22;447;51.332;6.778;2022-11-20T06:00:39;7.50;98.40
921;DHT22;447;51.332;6.778;2022-11-20T06:03:05;7.50;98.40
921;DHT22;447;51.332;6.778;2022-11-20T06:05:34;7.50;98.40
921;DHT22;447;51.332;6.778;2022-11-20T06:08:00;7.40;98.40
921;DHT22;447;51.332;6.778;2022-11-20T06:10:28;7.40;98.40
921;DHT22;447;51.332;6.778;2022-11-20T06:12:57;7.40;98.40
921;DHT22;447;51.332;6.778;2022-11-20T06:15:24;7.50;98.50
921;DHT22;447;51.332;6.778;2022-11-20T06:17:55;7.50;98.40
921;DHT22;447;51.332;6.778;2022-11-20T06:20:22;7.40;98.40
921;DHT22;447;51.332;6.778;2022-11-20T06:22:50;7.50;98.40
921;DHT22;447;51.332;6.778;2022-11-20T06:25:18;7.40;98.40
921;DHT22;447;51.332;6.778;2022-11-20T06:27:44;7.40;98.40
921;DHT22;447;51.332;6.778;2022-11-20T06:30:13;7.50;98.40
921;DHT22;447;51.332;6.778;2022-11-20T06:32:41;7.50;98.40
921;DHT22;447;51.332;6.778;2022-11-20T06:35:07;7.50;98.40
921;DHT22;447;51.332;6.778;2022-11-20T06:37:33;7.50;98.50
921;DHT22;447;51.332;6.778;2022-11-20T06:39:59;7.50;98.40
921;DHT22;447;51.332;6.778;2022-11-20T06:42:25;7.50;98.40
921;DHT22;447;51.332;6.778;2022-11-20T06:44:53;7.40;98.40
921;DHT22;447;51.332;6.778;2022-11-20T06:47:21;7.40;98.50
921;DHT22;447;51.332;6.778;2022-11-20T06:49:50;7.50;98.50
921;DHT22;447;51.332;6.778;2022-11-20T06:52:16;7.50;98.50
921;DHT22;447;51.332;6.778;2022-11-20T06:54:44;7.50;98.50
921;DHT22;447;51.332;6.778;2022-11-20T06:57:10;7.40;98.50
921;DHT22;447;51.332;6.778;2022-11-20T06:59:36;7.40;98.60
921;DHT22;447;51.332;6.778;2022-11-20T07:02:02;7.40;98.60
921;DHT22;447;51.332;6.778;2022-11-20T07:04:28;7.40;98.50
921;DHT22;447;51.332;6.778;2022-11-20T07:06:54;7.40;98.50
921;DHT22;447;51.332;6.778;2022-11-20T07:09:21;7.40;98.90
921;DHT22;447;51.332;6.778;2022-11-20T07:11:49;7.40;98.60
921;DHT22;447;51.332;6.778;2022-11-20T07:14:15;7.40;98.60
921;DHT22;447;51.332;6.778;2022-11-20T07:16:41;7.40;98.60
921;DHT22;447;51.332;6.778;2022-11-20T07:19:09;7.40;98.60
921;DHT22;447;51.332;6.778;2022-11-20T07:21:36;7.40;98.60
921;DHT22;447;51.332;6.778;2022-11-20T07:24:05;7.40;98.60
921;DHT22;447;51.332;6.778;2022-11-20T07:26:33;7.40;98.60
921;DHT22;447;51.332;6.778;2022-11-20T07:29:01;7.40;98.70
921;DHT22;447;51.332;6.778;2022-11-20T07:31:27;7.40;98.70
921;DHT22;447;51.332;6.778;2022-11-20T07:33:53;7.40;98.70
921;DHT22;447;51.332;6.778;2022-11-20T07:36:20;7.40;98.70
921;DHT22;447;51.332;6.778;2022-11-20T07:38:46;7.40;98.60
921;DHT22;447;51.332;6.778;2022-11-20T07:41:18;7.40;98.70
921;DHT22;447;51.332;6.778;2022-11-20T07:43:49;7.40;98.70
921;DHT22;447;51.332;6.778;2022-11-20T07:46:15;7.40;98.70
921;DHT22;447;51.332;6.778;2022-11-20T07:48:41;7.40;98.70
921;DHT22;447;51.332;6.778;2022-11-20T07:51:12;7.40;98.70
921;DHT22;447;51.332;6.778;2022-11-20T07:53:42;7.40;98.70
921;DHT22;447;51.332;6.778;2022-11-20T07:56:08;7.40;98.70
921;DHT22;447;51.332;6.778;2022-11-20T07:58:38;7.40;98.70
921;DHT22;447;51.332;6.778;2022-11-20T08:01:06;7.40;98.70
921;DHT22;447;51.332;6.778;2022-11-20T08:03:35;7.40;98.70
921;DHT22;447;51.332;6.778;2022-11-20T08:06:04;7.40;98.70
921;DHT22;447;51.332;6.778;2022-11-20T08:08:32;7.40;98.70
921;DHT22;447;51.332;6.778;2022-11-20T08:10:58;7.40;98.70
921;DHT22;447;51.332;6.778;2022-11-20T08:13:45;7.40;98.70
921;DHT22;447;51.332;6.778;2022-11-20T08:16:32;7.40;98.80
921;DHT22;447;51.332;6.778;2022-11-20T08:18:58;7.40;98.80
921;DHT22;447;51.332;6.778;2022-11-20T08:21:24;7.40;98.80
921;DHT22;447;51.332;6.778;2022-11-20T08:23:50;7.40;99.10
921;DHT22;447;51.332;6.778;2022-11-20T08:26:16;7.40;98.80
921;DHT22;447;51.332;6.778;2022-11-20T08:28:42;7.40;98.80
921;DHT22;447;51.332;6.778;2022-11-20T08:31:08;7.40;98.80
921;DHT22;447;51.332;6.778;2022-11-20T08:33:37;7.40;98.80
921;DHT22;447;51.332;6.778;2022-11-20T08:36:06;7.40;98.80
921;DHT22;447;51.332;6.778;2022-11-20T08:38:32;7.40;98.80
921;DHT22;447;51.332;6.778;2022-11-20T08:41:02;7.40;98.80
921;DHT22;447;51.332;6.778;2022-11-20T08:43:48;7.40;99.10
921;DHT22;447;51.332;6.778;2022-11-20T08:46:14;7.40;98.80
921;DHT22;447;51.332;6.778;2022-11-20T08:48:40;7.40;98.80
921;DHT22;447;51.332;6.778;2022-11-20T08:51:09;7.40;98.80
921;DHT22;447;51.332;6.778;2022-11-20T08:53:35;7.40;98.90
921;DHT22;447;51.332;6.778;2022-11-20T08:56:03;7.40;98.80
921;DHT22;447;51.332;6.778;2022-11-20T08:58:30;7.40;98.80
921;DHT22;447;51.332;6.778;2022-11-20T09:01:01;7.40;98.90
921;DHT22;447;51.332;6.778;2022-11-20T09:03:28;7.40;98.90
921;DHT22;447;51.332;6.778;2022-11-20T09:06:01;7.50;98.90
921;DHT22;447;51.332;6.778;2022-11-20T09:08:30;7.50;99.00
921;DHT22;447;51.332;6.778;2022-11-20T09:10:57;7.50;98.90
921;DHT22;447;51.332;6.778;2022-11-20T09:13:25;7.50;98.90
921;DHT22;447;51.332;6.778;2022-11-20T09:16:04;7.50;98.90
921;DHT22;447;51.332;6.778;2022-11-20T09:18:32;7.50;99.00
921;DHT22;447;51.332;6.778;2022-11-20T09:20:59;7.50;98.90
921;DHT22;447;51.332;6.778;2022-11-20T09:23:26;7.50;98.90
921;DHT22;447;51.332;6.778;2022-11-20T09:25:52;7.50;98.90
921;DHT22;447;51.332;6.778;2022-11-20T09:28:27;7.50;99.00
921;DHT22;447;51.332;6.778;2022-11-20T09:30:56;7.50;98.90
921;DHT22;447;51.332;6.778;2022-11-20T09:33:22;7.50;99.00
921;DHT22;447;51.332;6.778;2022-11-20T09:35:48;7.50;99.00
921;DHT22;447;51.332;6.778;2022-11-20T09:38:14;7.50;99.00
921;DHT22;447;51.332;6.778;2022-11-20T09:41:05;7.50;99.00
921;DHT22;447;51.332;6.778;2022-11-20T09:43:53;7.50;99.00
921;DHT22;447;51.332;6.778;2022-11-20T09:46:48;7.50;99.00
921;DHT22;447;51.332;6.778;2022-11-20T09:52:48;7.50;98.90
921;DHT22;447;51.332;6.778;2022-11-20T09:55:18;7.50;98.90
921;DHT22;447;51.332;6.778;2022-11-20T09:57:46;7.50;99.00
921;DHT22;447;51.332;6.778;2022-11-20T10:00:14;7.50;99.00
921;DHT22;447;51.332;6.778;2022-11-20T10:05:36;7.50;99.00
921;DHT22;447;51.332;6.778;2022-11-20T10:08:33;7.50;99.00
921;DHT22;447;51.332;6.778;2022-11-20T10:16:43;7.50;99.00
921;DHT22;447;51.332;6.778;2022-11-20T10:24:46;7.50;99.00
921;DHT22;447;51.332;6.778;2022-11-20T10:30:15;7.50;99.00
921;DHT22;447;51.332;6.778;2022-11-20T10:32:52;7.50;99.00
921;DHT22;447;51.332;6.778;2022-11-20T10:38:18;7.60;99.00
921;DHT22;447;51.332;6.778;2022-11-20T10:40:51;7.60;99.00
921;DHT22;447;51.332;6.778;2022-11-20T10:43:31;7.60;99.00
921;DHT22;447;51.332;6.778;2022-11-20T10:46:05;7.60;99.00
921;DHT22;447;51.332;6.778;2022-11-20T10:48:32;7.60;99.00
921;DHT22;447;51.332;6.778;2022-11-20T10:56:53;7.60;99.00
921;DHT22;447;51.332;6.778;2022-11-20T11:02:22;7.60;99.00
921;DHT22;447;51.332;6.778;2022-11-20T11:04:52;7.60;99.00
921;DHT22;447;51.332;6.778;2022-11-20T11:07:29;7.60;99.00
921;DHT22;447;51.332;6.778;2022-11-20T11:09:56;7.60;99.00
921;DHT22;447;51.332;6.778;2022-11-20T11:12:28;7.60;99.00
921;DHT22;447;51.332;6.778;2022-11-20T11:14:56;7.60;99.00
921;DHT22;447;51.332;6.778;2022-11-20T11:17:30;7.70;99.10
921;DHT22;447;51.332;6.778;2022-11-20T11:20:04;7.60;99.00
921;DHT22;447;51.332;6.778;2022-11-20T11:22:32;7.70;99.10
921;DHT22;447;51.332;6.778;2022-11-20T11:24:59;7.70;99.10
921;DHT22;447;51.332;6.778;2022-11-20T11:27:25;7.70;99.10
921;DHT22;447;51.332;6.778;2022-11-20T11:30:14;7.70;99.10
921;DHT22;447;51.332;6.778;2022-11-20T11:32:47;7.70;99.10
921;DHT22;447;51.332;6.778;2022-11-20T11:35:27;7.70;99.00
921;DHT22;447;51.332;6.778;2022-11-20T11:38:02;7.70;99.00
921;DHT22;447;51.332;6.778;2022-11-20T11:40:35;7.70;99.00
921;DHT22;447;51.332;6.778;2022-11-20T11:43:05;7.70;99.10
921;DHT22;447;51.332;6.778;2022-11-20T11:45:55;7.70;99.10
921;DHT22;447;51.332;6.778;2022-11-20T11:48:26;7.70;99.00
921;DHT22;447;51.332;6.778;2022-11-20T11:50:52;7.70;99.10
921;DHT22;447;51.332;6.778;2022-11-20T11:53:20;7.70;99.10
921;DHT22;447;51.332;6.778;2022-11-20T11:56:10;7.70;99.10
921;DHT22;447;51.332;6.778;2022-11-20T11:58:52;7.70;99.10
921;DHT22;447;51.332;6.778;2022-11-20T12:01:38;7.70;99.40
921;DHT22;447;51.332;6.778;2022-11-20T12:06:50;7.70;99.10
921;DHT22;447;51.332;6.778;2022-11-20T12:09:26;7.70;99.10
921;DHT22;447;51.332;6.778;2022-11-20T12:12:20;7.70;99.10
921;DHT22;447;51.332;6.778;2022-11-20T12:14:50;7.80;99.20
921;DHT22;447;51.332;6.778;2022-11-20T12:17:19;7.80;99.20
921;DHT22;447;51.332;6.778;2022-11-20T12:19:46;7.80;99.10
921;DHT22;447;51.332;6.778;2022-11-20T12:25:22;7.80;99.10
921;DHT22;447;51.332;6.778;2022-11-20T12:51:06;7.80;99.10
921;DHT22;447;51.332;6.778;2022-11-20T13:00:01;7.80;99.10
921;DHT22;447;51.332;6.778;2022-11-20T13:08:04;7.90;99.20
921;DHT22;447;51.332;6.778;2022-11-20T13:10:49;7.90;99.20
921;DHT22;447;51.332;6.778;2022-11-20T13:14:16;7.90;99.20
921;DHT22;447;51.332;6.778;2022-11-20T13:19:05;7.90;99.30
921;DHT22;447;51.332;6.778;2022-11-20T13:21:42;7.90;99.30
921;DHT22;447;51.332;6.778;2022-11-20T13:29:43;7.90;99.50
921;DHT22;447;51.332;6.778;2022-11-20T13:32:17;7.90;99.40
921;DHT22;447;51.332;6.778;2022-11-20T13:35:01;7.90;99.40
921;DHT22;447;51.332;6.778;2022-11-20T13:37:33;7.90;99.50
921;DHT22;447;51.332;6.778;2022-11-20T13:42:54;7.80;99.60
921;DHT22;447;51.332;6.778;2022-11-20T13:45:31;7.90;99.70
921;DHT22;447;51.332;6.778;2022-11-20T13:48:03;7.90;99.70
921;DHT22;447;51.332;6.778;2022-11-20T13:53:30;7.90;99.70
921;DHT22;447;51.332;6.778;2022-11-20T14:01:17;7.90;99.80
921;DHT22;447;51.332;6.778;2022-11-20T14:03:46;7.90;99.80
921;DHT22;447;51.332;6.778;2022-11-20T14:06:29;7.90;99.80
921;DHT22;447;51.332;6.778;2022-11-20T14:08:59;7.90;99.80
921;DHT22;447;51.332;6.778;2022-11-20T14:11:29;7.90;99.80
921;DHT22;447;51.332;6.778;2022-11-20T14:14:01;8.00;99.80
921;DHT22;447;51.332;6.778;2022-11-20T14:16:32;8.00;99.80
921;DHT22;447;51.332;6.778;2022-11-20T14:21:43;7.90;99.80
921;DHT22;447;51.332;6.778;2022-11-20T14:24:11;7.90;99.80
921;DHT22;447;51.332;6.778;2022-11-20T14:26:46;7.90;99.90
921;DHT22;447;51.332;6.778;2022-11-20T14:29:17;7.90;99.90
921;DHT22;447;51.332;6.778;2022-11-20T14:31:47;7.90;99.90
921;DHT22;447;51.332;6.778;2022-11-20T14:34:25;7.90;99.90
921;DHT22;447;51.332;6.778;2022-11-20T14:37:05;7.90;99.90
921;DHT22;447;51.332;6.778;2022-11-20T14:39:36;7.90;99.90
921;DHT22;447;51.332;6.778;2022-11-20T14:42:17;7.90;99.90
921;DHT22;447;51.332;6.778;2022-11-20T14:44:43;7.90;99.90
921;DHT22;447;51.332;6.778;2022-11-20T14:47:19;7.90;99.90
921;DHT22;447;51.332;6.778;2022-11-20T14:49:47;7.90;99.90
921;DHT22;447;51.332;6.778;2022-11-20T14:52:21;7.90;99.90
921;DHT22;447;51.332;6.778;2022-11-20T14:54:52;7.90;99.90
921;DHT22;447;51.332;6.778;2022-11-20T15:00:02;7.90;99.90
921;DHT22;447;51.332;6.778;2022-11-20T15:02:30;8.00;99.90
921;DHT22;447;51.332;6.778;2022-11-20T15:05:01;8.00;99.90
921;DHT22;447;51.332;6.778;2022-11-20T15:07:39;8.00;99.90
921;DHT22;447;51.332;6.778;2022-11-20T15:10:10;8.00;99.90
921;DHT22;447;51.332;6.778;2022-11-20T15:12:46;8.00;99.90
921;DHT22;447;51.332;6.778;2022-11-20T15:15:58;8.00;99.90
921;DHT22;447;51.332;6.778;2022-11-20T15:18:19;8.00;99.90
921;DHT22;447;51.332;6.778;2022-11-20T15:20:46;8.00;99.90
921;DHT22;447;51.332;6.778;2022-11-20T15:23:16;8.00;99.90
921;DHT22;447;51.332;6.778;2022-11-20T15:25:48;8.00;99.90
921;DHT22;447;51.332;6.778;2022-11-20T15:28:31;8.00;99.90
921;DHT22;447;51.332;6.778;2022-11-20T15:31:00;8.00;99.90
921;DHT22;447;51.332;6.778;2022-11-20T15:33:27;8.00;99.90
921;DHT22;447;51.332;6.778;2022-11-20T15:35:56;8.00;99.90
921;DHT22;447;51.332;6.778;2022-11-20T15:38:25;8.00;99.90
921;DHT22;447;51.332;6.778;2022-11-20T15:40:51;8.00;99.90
921;DHT22;447;51.332;6.778;2022-11-20T15:43:20;8.00;99.90
921;DHT22;447;51.332;6.778;2022-11-20T15:45:58;8.00;99.90
921;DHT22;447;51.332;6.778;2022-11-20T15:48:44;8.00;99.90
921;DHT22;447;51.332;6.778;2022-11-20T15:53:38;8.00;99.90
921;DHT22;447;51.332;6.778;2022-11-20T15:56:06;8.00;99.90
921;DHT22;447;51.332;6.778;2022-11-20T15:58:32;8.00;99.90
921;DHT22;447;51.332;6.778;2022-11-20T16:00:58;8.00;99.90
921;DHT22;447;51.332;6.778;2022-11-20T16:03:24;8.00;99.90
921;DHT22;447;51.332;6.778;2022-11-20T16:05:50;8.00;99.90
921;DHT22;447;51.332;6.778;2022-11-20T16:08:18;8.00;99.90
921;DHT22;447;51.332;6.778;2022-11-20T16:10:44;8.00;99.90
921;DHT22;447;51.332;6.778;2022-11-20T16:13:17;8.00;99.90
921;DHT22;447;51.332;6.778;2022-11-20T16:16:04;8.00;99.90
921;DHT22;447;51.332;6.778;2022-11-20T16:18:31;8.00;99.90
921;DHT22;447;51.332;6.778;2022-11-20T16:20:58;8.00;99.90
921;DHT22;447;51.332;6.778;2022-11-20T16:23:23;8.00;99.90
921;DHT22;447;51.332;6.778;2022-11-20T16:25:50;8.00;99.90
921;DHT22;447;51.332;6.778;2022-11-20T16:28:17;8.00;99.90
921;DHT22;447;51.332;6.778;2022-11-20T16:30:46;8.00;99.90
921;DHT22;447;51.332;6.778;2022-11-20T16:33:16;8.00;99.90
921;DHT22;447;51.332;6.778;2022-11-20T16:35:43;8.00;99.90
921;DHT22;447;51.332;6.778;2022-11-20T16:38:09;8.00;99.90
921;DHT22;447;51.332;6.778;2022-11-20T16:40:38;8.00;99.90
921;DHT22;447;51.332;6.778;2022-11-20T16:43:09;8.00;99.90
921;DHT22;447;51.332;6.778;2022-11-20T16:45:40;8.00;99.90
921;DHT22;447;51.332;6.778;2022-11-20T16:48:07;8.00;99.90
921;DHT22;447;51.332;6.778;2022-11-20T16:50:36;8.00;99.90
921;DHT22;447;51.332;6.778;2022-11-20T16:53:05;8.00;99.90
921;DHT22;447;51.332;6.778;2022-11-20T16:55:33;8.10;99.90
921;DHT22;447;51.332;6.778;2022-11-20T16:57:59;8.10;99.90
921;DHT22;447;51.332;6.778;2022-11-20T17:00:25;8.10;99.90
921;DHT22;447;51.332;6.778;2022-11-20T17:02:51;8.10;99.90
921;DHT22;447;51.332;6.778;2022-11-20T17:05:17;8.10;99.90
921;DHT22;447;51.332;6.778;2022-11-20T17:07:46;8.10;99.90
921;DHT22;447;51.332;6.778;2022-11-20T17:10:14;8.10;99.90
921;DHT22;447;51.332;6.778;2022-11-20T17:12:40;8.10;99.90
921;DHT22;447;51.332;6.778;2022-11-20T17:15:07;8.10;99.90
921;DHT22;447;51.332;6.778;2022-11-20T17:17:33;8.10;99.90
921;DHT22;447;51.332;6.778;2022-11-20T17:19:59;8.10;99.90
921;DHT22;447;51.332;6.778;2022-11-20T17:22:27;8.10;99.90
921;DHT22;447;51.332;6.778;2022-11-20T17:24:55;8.10;99.90
921;DHT22;447;51.332;6.778;2022-11-20T17:27:24;8.10;99.90
921;DHT22;447;51.332;6.778;2022-11-20T17:29:50;8.10;99.90
921;DHT22;447;51.332;6.778;2022-11-20T17:32:23;8.10;99.90
921;DHT22;447;51.332;6.778;2022-11-20T17:34:49;8.10;99.90
921;DHT22;447;51.332;6.778;2022-11-20T17:37:20;8.10;99.90
921;DHT22;447;51.332;6.778;2022-11-20T17:39:46;8.10;99.90
921;DHT22;447;51.332;6.778;2022-11-20T17:42:13;8.10;99.90
921;DHT22;447;51.332;6.778;2022-11-20T17:44:56;8.10;99.90
921;DHT22;447;51.332;6.778;2022-11-20T17:47:25;8.10;99.90
921;DHT22;447;51.332;6.778;2022-11-20T17:49:53;8.10;99.90
921;DHT22;447;51.332;6.778;2022-11-20T17:52:22;8.10;99.90
921;DHT22;447;51.332;6.778;2022-11-20T17:54:48;8.10;99.90
921;DHT22;447;51.332;6.778;2022-11-20T17:57:16;8.20;99.90
921;DHT22;447;51.332;6.778;2022-11-20T18:00:04;8.10;99.90
921;DHT22;447;51.332;6.778;2022-11-20T18:02:31;8.10;99.90
921;DHT22;447;51.332;6.778;2022-11-20T18:04:57;8.10;99.90
921;DHT22;447;51.332;6.778;2022-11-20T18:07:35;8.10;99.90
921;DHT22;447;51.332;6.778;2022-11-20T18:10:04;8.10;99.90
921;DHT22;447;51.332;6.778;2022-11-20T18:12:32;8.10;99.90
921;DHT22;447;51.332;6.778;2022-11-20T18:15:01;8.10;99.90
921;DHT22;447;51.332;6.778;2022-11-20T18:17:29;8.10;99.90
921;DHT22;447;51.332;6.778;2022-11-20T18:19:57;8.10;99.90
921;DHT22;447;51.332;6.778;2022-11-20T18:22:23;8.10;99.90
921;DHT22;447;51.332;6.778;2022-11-20T18:24:49;8.10;99.90
921;DHT22;447;51.332;6.778;2022-11-20T18:27:19;8.10;99.90
921;DHT22;447;51.332;6.778;2022-11-20T18:29:46;8.10;99.90
921;DHT22;447;51.332;6.778;2022-11-20T18:32:18;8.10;99.90
921;DHT22;447;51.332;6.778;2022-11-20T18:34:44;8.10;99.90
921;DHT22;447;51.332;6.778;2022-11-20T18:37:12;8.10;99.90
921;DHT22;447;51.332;6.778;2022-11-20T18:39:43;8.10;99.90
921;DHT22;447;51.332;6.778;2022-11-20T18:42:13;8.10;99.90
921;DHT22;447;51.332;6.778;2022-11-20T18:44:58;8.20;99.90
921;DHT22;447;51.332;6.778;2022-11-20T18:47:28;8.10;99.90
921;DHT22;447;51.332;6.778;2022-11-20T18:49:58;8.10;99.90
921;DHT22;447;51.332;6.778;2022-11-20T18:52:29;8.10;99.90
921;DHT22;447;51.332;6.778;2022-11-20T18:54:59;8.10;99.90
921;DHT22;447;51.332;6.778;2022-11-20T18:57:27;8.10;99.90
921;DHT22;447;51.332;6.778;2022-11-20T18:59:54;8.10;99.90